sensor_id;sensor_type;location;lat;lon;timestamp;pressure;altitude;pressure_sealevel;temperature;humidity
76195;BME280;64964;48.694;21.206;2023-06-22T00:01:24;98175.97;;;20.18;78.90
76195;BME280;64964;48.694;21.206;2023-06-22T00:03:50;98167.34;;;20.16;79.08
76195;BME280;64964;48.694;21.206;2023-06-22T00:06:15;98164.66;;;20.16;78.96
76195;BME280;64964;48.694;21.206;2023-06-22T00:08:41;98171.91;;;20.15;79.36
76195;BME280;64964;48.694;21.206;2023-06-22T00:11:06;98165.72;;;20.15;79.48
76195;BME280;64964;48.694;21.206;2023-06-22T00:13:32;98162.81;;;20.17;79.04
76195;BME280;64964;48.694;21.206;2023-06-22T00:15:57;98163.38;;;20.19;79.26
76195;BME280;64964;48.694;21.206;2023-06-22T00:18:23;98156.16;;;20.19;79.23
76195;BME280;64964;48.694;21.206;2023-06-22T00:20:54;98159.06;;;20.18;79.58
76195;BME280;64964;48.694;21.206;2023-06-22T00:23:22;98161.53;;;20.19;79.04
76195;BME280;64964;48.694;21.206;2023-06-22T00:25:49;98161.53;;;20.19;78.90
76195;BME280;64964;48.694;21.206;2023-06-22T00:28:14;98161.06;;;20.22;79.17
76195;BME280;64964;48.694;21.206;2023-06-22T00:30:39;98165.16;;;20.25;79.05
76195;BME280;64964;48.694;21.206;2023-06-22T00:33:05;98163.06;;;20.27;78.91
76195;BME280;64964;48.694;21.206;2023-06-22T00:35:33;98158.28;;;20.29;78.85
76195;BME280;64964;48.694;21.206;2023-06-22T00:37:59;98155.25;;;20.25;78.73
76195;BME280;64964;48.694;21.206;2023-06-22T00:40:31;98148.44;;;20.23;78.90
76195;BME280;64964;48.694;21.206;2023-06-22T00:42:56;98162.03;;;20.28;78.68
76195;BME280;64964;48.694;21.206;2023-06-22T00:45:25;98160.38;;;20.27;78.94
76195;BME280;64964;48.694;21.206;2023-06-22T00:47:56;98157.81;;;20.20;78.86
76195;BME280;64964;48.694;21.206;2023-06-22T00:50:23;98154.44;;;20.25;78.81
76195;BME280;64964;48.694;21.206;2023-06-22T00:52:56;98153.81;;;20.23;78.96
76195;BME280;64964;48.694;21.206;2023-06-22T00:55:24;98132.78;;;20.08;78.33
76195;BME280;64964;48.694;21.206;2023-06-22T00:57:51;98152.19;;;20.22;78.51
76195;BME280;64964;48.694;21.206;2023-06-22T01:00:21;98153.47;;;20.19;78.87
76195;BME280;64964;48.694;21.206;2023-06-22T01:02:50;98152.06;;;20.17;78.79
76195;BME280;64964;48.694;21.206;2023-06-22T01:05:18;98153.31;;;20.14;78.64
76195;BME280;64964;48.694;21.206;2023-06-22T01:08:01;98163.69;;;20.10;79.28
76195;BME280;64964;48.694;21.206;2023-06-22T01:13:14;98155.13;;;20.02;79.10
76195;BME280;64964;48.694;21.206;2023-06-22T01:15:45;98173.84;;;20.08;79.01
76195;BME280;64964;48.694;21.206;2023-06-22T01:18:16;98155.22;;;19.95;78.91
76195;BME280;64964;48.694;21.206;2023-06-22T01:20:42;98166.25;;;20.05;78.62
76195;BME280;64964;48.694;21.206;2023-06-22T01:23:36;98167.72;;;20.01;80.23
76195;BME280;64964;48.694;21.206;2023-06-22T01:26:18;98182.81;;;20.02;79.37
76195;BME280;64964;48.694;21.206;2023-06-22T01:28:49;98176.59;;;20.02;79.36
76195;BME280;64964;48.694;21.206;2023-06-22T01:31:20;98157.16;;;19.88;78.93
76195;BME280;64964;48.694;21.206;2023-06-22T01:33:51;98172.91;;;20.03;78.98
76195;BME280;64964;48.694;21.206;2023-06-22T01:36:18;98184.44;;;20.03;79.15
76195;BME280;64964;48.694;21.206;2023-06-22T01:38:45;98189.81;;;20.03;79.06
76195;BME280;64964;48.694;21.206;2023-06-22T01:41:11;98190.03;;;20.02;78.97
76195;BME280;64964;48.694;21.206;2023-06-22T01:43:37;98188.19;;;20.02;79.04
76195;BME280;64964;48.694;21.206;2023-06-22T01:46:03;98171.41;;;19.88;79.11
76195;BME280;64964;48.694;21.206;2023-06-22T01:48:30;98187.81;;;19.99;78.82
76195;BME280;64964;48.694;21.206;2023-06-22T01:50:57;98191.31;;;19.99;79.20
76195;BME280;64964;48.694;21.206;2023-06-22T01:53:23;98202.03;;;19.99;79.35
76195;BME280;64964;48.694;21.206;2023-06-22T01:55:49;98180.75;;;19.86;79.21
76195;BME280;64964;48.694;21.206;2023-06-22T01:58:14;98203.31;;;19.97;79.40
76195;BME280;64964;48.694;21.206;2023-06-22T02:00:44;98176.03;;;19.81;79.18
76195;BME280;64964;48.694;21.206;2023-06-22T02:03:14;98180.00;;;19.79;79.03
76195;BME280;64964;48.694;21.206;2023-06-22T02:05:48;98212.25;;;19.90;79.18
76195;BME280;64964;48.694;21.206;2023-06-22T02:08:26;98214.56;;;19.87;79.81
76195;BME280;64964;48.694;21.206;2023-06-22T02:10:54;98218.88;;;19.88;78.94
76195;BME280;64964;48.694;21.206;2023-06-22T02:13:20;98220.38;;;19.84;79.07
76195;BME280;64964;48.694;21.206;2023-06-22T02:15:47;98221.19;;;19.84;79.12
76195;BME280;64964;48.694;21.206;2023-06-22T02:18:13;98216.88;;;19.83;79.32
76195;BME280;64964;48.694;21.206;2023-06-22T02:20:39;98217.94;;;19.82;79.07
76195;BME280;64964;48.694;21.206;2023-06-22T02:23:07;98228.03;;;19.80;79.01
76195;BME280;64964;48.694;21.206;2023-06-22T02:25:34;98218.38;;;19.79;79.11
76195;BME280;64964;48.694;21.206;2023-06-22T02:27:59;98208.06;;;19.76;79.14
76195;BME280;64964;48.694;21.206;2023-06-22T02:30:25;98211.56;;;19.77;79.12
76195;BME280;64964;48.694;21.206;2023-06-22T02:32:50;98214.50;;;19.75;79.11
76195;BME280;64964;48.694;21.206;2023-06-22T02:35:27;98207.94;;;19.71;79.34
76195;BME280;64964;48.694;21.206;2023-06-22T02:37:59;98207.09;;;19.71;78.91
76195;BME280;64964;48.694;21.206;2023-06-22T02:40:25;98211.03;;;19.68;79.32
76195;BME280;64964;48.694;21.206;2023-06-22T02:42:50;98218.06;;;19.69;79.64
76195;BME280;64964;48.694;21.206;2023-06-22T02:45:16;98222.00;;;19.67;79.32
76195;BME280;64964;48.694;21.206;2023-06-22T02:47:41;98228.19;;;19.67;79.35
76195;BME280;64964;48.694;21.206;2023-06-22T02:50:07;98235.66;;;19.65;79.55
76195;BME280;64964;48.694;21.206;2023-06-22T02:52:32;98238.91;;;19.67;79.54
76195;BME280;64964;48.694;21.206;2023-06-22T02:54:57;98237.28;;;19.66;79.70
76195;BME280;64964;48.694;21.206;2023-06-22T02:57:23;98234.81;;;19.64;79.38
76195;BME280;64964;48.694;21.206;2023-06-22T02:59:48;98233.56;;;19.67;79.58
76195;BME280;64964;48.694;21.206;2023-06-22T03:02:14;98235.44;;;19.67;79.72
76195;BME280;64964;48.694;21.206;2023-06-22T03:04:39;98231.94;;;19.66;79.81
76195;BME280;64964;48.694;21.206;2023-06-22T03:07:04;98234.81;;;19.64;79.54
76195;BME280;64964;48.694;21.206;2023-06-22T03:09:30;98239.97;;;19.66;79.69
76195;BME280;64964;48.694;21.206;2023-06-22T03:11:55;98229.25;;;19.66;79.41
76195;BME280;64964;48.694;21.206;2023-06-22T03:14:21;98233.56;;;19.67;79.33
76195;BME280;64964;48.694;21.206;2023-06-22T03:16:46;98238.34;;;19.65;79.49
76195;BME280;64964;48.694;21.206;2023-06-22T03:19:12;98245.09;;;19.68;79.44
76195;BME280;64964;48.694;21.206;2023-06-22T03:21:38;98239.75;;;19.68;79.48
76195;BME280;64964;48.694;21.206;2023-06-22T03:24:04;98237.88;;;19.68;79.57
76195;BME280;64964;48.694;21.206;2023-06-22T03:26:30;98244.06;;;19.69;79.71
76195;BME280;64964;48.694;21.206;2023-06-22T03:28:55;98232.50;;;19.68;79.87
76195;BME280;64964;48.694;21.206;2023-06-22T03:31:22;98241.38;;;19.69;79.69
76195;BME280;64964;48.694;21.206;2023-06-22T03:33:48;98243.03;;;19.70;79.59
76195;BME280;64964;48.694;21.206;2023-06-22T03:36:15;98235.19;;;19.68;79.32
76195;BME280;64964;48.694;21.206;2023-06-22T03:38:44;98240.34;;;19.70;79.05
76195;BME280;64964;48.694;21.206;2023-06-22T03:41:09;98243.03;;;19.70;79.38
76195;BME280;64964;48.694;21.206;2023-06-22T03:43:35;98250.03;;;19.71;79.23
76195;BME280;64964;48.694;21.206;2023-06-22T03:46:00;98248.41;;;19.70;79.53
76195;BME280;64964;48.694;21.206;2023-06-22T03:48:26;98248.78;;;19.73;79.58
76195;BME280;64964;48.694;21.206;2023-06-22T03:50:51;98251.47;;;19.73;79.42
76195;BME280;64964;48.694;21.206;2023-06-22T03:53:16;98255.53;;;19.76;79.33
76195;BME280;64964;48.694;21.206;2023-06-22T03:55:49;98259.88;;;19.77;79.76
76195;BME280;64964;48.694;21.206;2023-06-22T03:58:19;98261.06;;;19.81;79.75
76195;BME280;64964;48.694;21.206;2023-06-22T04:00:46;98237.88;;;19.68;79.46
76195;BME280;64964;48.694;21.206;2023-06-22T04:03:12;98258.56;;;19.86;79.51
76195;BME280;64964;48.694;21.206;2023-06-22T04:05:38;98254.22;;;19.85;79.49
76195;BME280;64964;48.694;21.206;2023-06-22T04:08:04;98259.53;;;19.92;79.35
76195;BME280;64964;48.694;21.206;2023-06-22T04:10:30;98263.63;;;19.94;79.34
76195;BME280;64964;48.694;21.206;2023-06-22T04:12:55;98258.84;;;19.96;79.50
76195;BME280;64964;48.694;21.206;2023-06-22T04:15:21;98261.91;;;20.00;79.02
76195;BME280;64964;48.694;21.206;2023-06-22T04:17:47;98261.22;;;20.04;79.29
76195;BME280;64964;48.694;21.206;2023-06-22T04:20:12;98260.78;;;20.07;79.13
76195;BME280;64964;48.694;21.206;2023-06-22T04:22:37;98264.88;;;20.10;78.84
76195;BME280;64964;48.694;21.206;2023-06-22T04:25:03;98269.00;;;20.12;78.77
76195;BME280;64964;48.694;21.206;2023-06-22T04:27:28;98259.44;;;20.17;79.21
76195;BME280;64964;48.694;21.206;2023-06-22T04:29:54;98264.13;;;20.21;79.15
76195;BME280;64964;48.694;21.206;2023-06-22T04:32:19;98267.78;;;20.27;79.09
76195;BME280;64964;48.694;21.206;2023-06-22T04:34:44;98267.72;;;20.33;78.73
76195;BME280;64964;48.694;21.206;2023-06-22T04:37:10;98280.00;;;20.41;78.70
76195;BME280;64964;48.694;21.206;2023-06-22T04:39:41;98278.91;;;20.49;78.69
76195;BME280;64964;48.694;21.206;2023-06-22T04:42:06;98284.19;;;20.55;78.19
76195;BME280;64964;48.694;21.206;2023-06-22T04:44:32;98279.09;;;20.66;78.28
76195;BME280;64964;48.694;21.206;2023-06-22T04:46:58;98292.81;;;20.76;78.05
76195;BME280;64964;48.694;21.206;2023-06-22T04:49:29;98281.16;;;20.82;77.83
76195;BME280;64964;48.694;21.206;2023-06-22T04:54:31;98286.72;;;21.10;77.01
76195;BME280;64964;48.694;21.206;2023-06-22T04:57:04;98295.41;;;21.24;76.96
76195;BME280;64964;48.694;21.206;2023-06-22T04:59:30;98285.84;;;21.28;76.83
76195;BME280;64964;48.694;21.206;2023-06-22T05:01:57;98303.78;;;21.46;76.16
76195;BME280;64964;48.694;21.206;2023-06-22T05:04:23;98296.75;;;21.57;75.74
76195;BME280;64964;48.694;21.206;2023-06-22T05:06:50;98306.50;;;21.70;75.21
76195;BME280;64964;48.694;21.206;2023-06-22T05:09:15;98299.72;;;21.79;75.17
76195;BME280;64964;48.694;21.206;2023-06-22T05:11:42;98288.84;;;21.74;74.82
76195;BME280;64964;48.694;21.206;2023-06-22T05:14:07;98298.06;;;21.89;74.22
76195;BME280;64964;48.694;21.206;2023-06-22T05:16:33;98307.56;;;21.92;74.19
76195;BME280;64964;48.694;21.206;2023-06-22T05:18:59;98302.53;;;21.96;74.55
76195;BME280;64964;48.694;21.206;2023-06-22T05:21:26;98282.84;;;21.83;74.43
76195;BME280;64964;48.694;21.206;2023-06-22T05:23:55;98305.88;;;22.03;74.07
76195;BME280;64964;48.694;21.206;2023-06-22T05:26:25;98302.97;;;22.04;73.78
76195;BME280;64964;48.694;21.206;2023-06-22T05:28:51;98314.09;;;22.08;73.56
76195;BME280;64964;48.694;21.206;2023-06-22T05:31:16;98318.81;;;22.12;73.59
76195;BME280;64964;48.694;21.206;2023-06-22T05:33:43;98320.66;;;22.12;73.76
76195;BME280;64964;48.694;21.206;2023-06-22T05:36:09;98318.34;;;22.16;73.36
76195;BME280;64964;48.694;21.206;2023-06-22T05:38:36;98323.84;;;22.21;73.80
76195;BME280;64964;48.694;21.206;2023-06-22T05:41:02;98324.75;;;22.26;73.41
76195;BME280;64964;48.694;21.206;2023-06-22T05:43:27;98318.91;;;22.29;74.08
76195;BME280;64964;48.694;21.206;2023-06-22T05:45:53;98311.72;;;22.35;74.04
76195;BME280;64964;48.694;21.206;2023-06-22T05:48:18;98319.09;;;22.40;73.89
76195;BME280;64964;48.694;21.206;2023-06-22T05:50:43;98321.31;;;22.43;74.04
76195;BME280;64964;48.694;21.206;2023-06-22T05:53:09;98317.34;;;22.45;73.76
76195;BME280;64964;48.694;21.206;2023-06-22T05:55:34;98321.53;;;22.53;73.53
76195;BME280;64964;48.694;21.206;2023-06-22T05:58:00;98315.19;;;22.59;73.60
76195;BME280;64964;48.694;21.206;2023-06-22T06:00:25;98318.78;;;22.65;72.96
76195;BME280;64964;48.694;21.206;2023-06-22T06:02:50;98320.56;;;22.71;72.70
76195;BME280;64964;48.694;21.206;2023-06-22T06:05:16;98310.69;;;22.76;72.56
76195;BME280;64964;48.694;21.206;2023-06-22T06:07:42;98312.25;;;22.89;72.89
76195;BME280;64964;48.694;21.206;2023-06-22T06:10:09;98312.34;;;23.06;72.45
76195;BME280;64964;48.694;21.206;2023-06-22T06:12:34;98314.16;;;23.17;72.11
76195;BME280;64964;48.694;21.206;2023-06-22T06:15:00;98311.00;;;23.37;71.88
76195;BME280;64964;48.694;21.206;2023-06-22T06:17:25;98313.44;;;23.55;71.57
76195;BME280;64964;48.694;21.206;2023-06-22T06:19:51;98314.88;;;23.75;70.87
76195;BME280;64964;48.694;21.206;2023-06-22T06:22:16;98313.19;;;23.91;70.52
76195;BME280;64964;48.694;21.206;2023-06-22T06:24:41;98307.84;;;24.13;70.72
76195;BME280;64964;48.694;21.206;2023-06-22T06:27:07;98320.06;;;24.37;70.59
76195;BME280;64964;48.694;21.206;2023-06-22T06:29:33;98323.88;;;24.58;69.70
76195;BME280;64964;48.694;21.206;2023-06-22T06:31:58;98326.56;;;24.80;69.22
76195;BME280;64964;48.694;21.206;2023-06-22T06:34:24;98336.78;;;25.00;68.74
76195;BME280;64964;48.694;21.206;2023-06-22T06:36:49;98338.06;;;25.19;67.15
76195;BME280;64964;48.694;21.206;2023-06-22T06:39:14;98350.19;;;25.39;67.44
76195;BME280;64964;48.694;21.206;2023-06-22T06:41:41;98342.75;;;25.56;66.88
76195;BME280;64964;48.694;21.206;2023-06-22T06:44:06;98325.44;;;25.62;66.10
76195;BME280;64964;48.694;21.206;2023-06-22T06:46:32;98338.47;;;25.92;66.51
76195;BME280;64964;48.694;21.206;2023-06-22T06:48:57;98335.03;;;26.12;65.54
76195;BME280;64964;48.694;21.206;2023-06-22T06:51:22;98333.25;;;26.33;64.86
76195;BME280;64964;48.694;21.206;2023-06-22T06:53:48;98330.16;;;26.51;64.52
76195;BME280;64964;48.694;21.206;2023-06-22T06:56:13;98326.41;;;26.68;64.01
76195;BME280;64964;48.694;21.206;2023-06-22T06:58:41;98307.16;;;26.74;64.18
76195;BME280;64964;48.694;21.206;2023-06-22T07:01:07;98321.34;;;27.02;62.97
76195;BME280;64964;48.694;21.206;2023-06-22T07:03:33;98333.91;;;27.18;62.31
76195;BME280;64964;48.694;21.206;2023-06-22T07:05:58;98324.94;;;27.33;62.37
76195;BME280;64964;48.694;21.206;2023-06-22T07:08:24;98327.13;;;27.51;61.89
76195;BME280;64964;48.694;21.206;2023-06-22T07:10:49;98331.75;;;27.66;61.08
76195;BME280;64964;48.694;21.206;2023-06-22T07:13:14;98329.34;;;27.80;60.39
76195;BME280;64964;48.694;21.206;2023-06-22T07:15:40;98339.66;;;27.93;59.85
76195;BME280;64964;48.694;21.206;2023-06-22T07:18:05;98330.38;;;28.04;59.32
76195;BME280;64964;48.694;21.206;2023-06-22T07:20:31;98332.53;;;28.18;59.14
76195;BME280;64964;48.694;21.206;2023-06-22T07:22:56;98331.41;;;28.29;58.07
76195;BME280;64964;48.694;21.206;2023-06-22T07:25:21;98328.69;;;28.39;57.78
76195;BME280;64964;48.694;21.206;2023-06-22T07:27:58;98332.75;;;28.47;54.73
76195;BME280;64964;48.694;21.206;2023-06-22T07:30:23;98322.34;;;28.59;56.36
76195;BME280;64964;48.694;21.206;2023-06-22T07:32:49;98336.44;;;28.71;55.92
76195;BME280;64964;48.694;21.206;2023-06-22T07:35:14;98333.69;;;28.82;55.45
76195;BME280;64964;48.694;21.206;2023-06-22T07:37:41;98326.25;;;28.92;55.44
76195;BME280;64964;48.694;21.206;2023-06-22T07:40:07;98332.78;;;29.01;55.03
76195;BME280;64964;48.694;21.206;2023-06-22T07:42:33;98334.34;;;29.13;54.82
76195;BME280;64964;48.694;21.206;2023-06-22T07:44:58;98335.34;;;29.22;54.73
76195;BME280;64964;48.694;21.206;2023-06-22T07:47:24;98330.16;;;29.31;54.00
76195;BME280;64964;48.694;21.206;2023-06-22T07:49:51;98335.22;;;29.42;53.01
76195;BME280;64964;48.694;21.206;2023-06-22T07:52:19;98331.94;;;29.45;52.83
76195;BME280;64964;48.694;21.206;2023-06-22T07:54:45;98334.84;;;29.54;53.38
76195;BME280;64964;48.694;21.206;2023-06-22T07:57:10;98334.81;;;29.64;52.94
76195;BME280;64964;48.694;21.206;2023-06-22T07:59:36;98340.97;;;29.75;52.33
76195;BME280;64964;48.694;21.206;2023-06-22T08:02:01;98334.63;;;29.85;52.67
76195;BME280;64964;48.694;21.206;2023-06-22T08:04:28;98336.44;;;29.94;51.65
76195;BME280;64964;48.694;21.206;2023-06-22T08:06:54;98343.47;;;30.00;51.53
76195;BME280;64964;48.694;21.206;2023-06-22T08:09:19;98340.66;;;30.11;51.07
76195;BME280;64964;48.694;21.206;2023-06-22T08:11:44;98348.75;;;30.21;50.39
76195;BME280;64964;48.694;21.206;2023-06-22T08:14:10;98343.47;;;30.30;50.60
76195;BME280;64964;48.694;21.206;2023-06-22T08:16:35;98354.28;;;30.40;51.16
76195;BME280;64964;48.694;21.206;2023-06-22T08:19:00;98355.28;;;30.49;50.70
76195;BME280;64964;48.694;21.206;2023-06-22T08:21:26;98355.69;;;30.61;50.09
76195;BME280;64964;48.694;21.206;2023-06-22T08:23:51;98347.94;;;30.68;49.87
76195;BME280;64964;48.694;21.206;2023-06-22T08:26:17;98347.09;;;30.73;49.55
76195;BME280;64964;48.694;21.206;2023-06-22T08:28:42;98353.81;;;30.81;49.04
76195;BME280;64964;48.694;21.206;2023-06-22T08:31:07;98356.19;;;30.87;49.01
76195;BME280;64964;48.694;21.206;2023-06-22T08:33:33;98353.63;;;30.96;48.76
76195;BME280;64964;48.694;21.206;2023-06-22T08:35:59;98352.94;;;31.04;48.48
76195;BME280;64964;48.694;21.206;2023-06-22T08:38:25;98355.03;;;31.12;48.60
76195;BME280;64964;48.694;21.206;2023-06-22T08:40:51;98359.03;;;31.20;48.58
76195;BME280;64964;48.694;21.206;2023-06-22T08:43:16;98359.53;;;31.22;48.06
76195;BME280;64964;48.694;21.206;2023-06-22T08:45:41;98360.06;;;31.24;47.70
76195;BME280;64964;48.694;21.206;2023-06-22T08:48:07;98358.78;;;31.16;48.20
76195;BME280;64964;48.694;21.206;2023-06-22T08:50:32;98352.00;;;31.14;48.78
76195;BME280;64964;48.694;21.206;2023-06-22T08:52:57;98349.22;;;31.19;48.43
76195;BME280;64964;48.694;21.206;2023-06-22T08:55:23;98352.63;;;31.30;48.14
76195;BME280;64964;48.694;21.206;2023-06-22T08:57:48;98353.28;;;31.40;48.01
76195;BME280;64964;48.694;21.206;2023-06-22T09:00:14;98344.41;;;31.48;47.57
76195;BME280;64964;48.694;21.206;2023-06-22T09:02:45;98341.81;;;31.57;47.75
76195;BME280;64964;48.694;21.206;2023-06-22T09:05:11;98333.00;;;31.60;47.25
76195;BME280;64964;48.694;21.206;2023-06-22T09:07:36;98341.53;;;31.72;47.22
76195;BME280;64964;48.694;21.206;2023-06-22T09:10:02;98338.75;;;31.78;47.22
76195;BME280;64964;48.694;21.206;2023-06-22T09:12:30;98337.78;;;31.87;46.32
76195;BME280;64964;48.694;21.206;2023-06-22T09:14:56;98334.13;;;31.92;45.81
76195;BME280;64964;48.694;21.206;2023-06-22T09:17:22;98339.00;;;31.95;46.27
76195;BME280;64964;48.694;21.206;2023-06-22T09:19:48;98331.31;;;31.97;46.08
76195;BME280;64964;48.694;21.206;2023-06-22T09:22:14;98327.66;;;32.02;46.18
76195;BME280;64964;48.694;21.206;2023-06-22T09:24:39;98329.47;;;32.06;45.64
76195;BME280;64964;48.694;21.206;2023-06-22T09:27:05;98322.63;;;32.09;45.40
76195;BME280;64964;48.694;21.206;2023-06-22T09:29:30;98325.03;;;32.10;45.29
76195;BME280;64964;48.694;21.206;2023-06-22T09:31:58;98321.22;;;32.11;44.37
76195;BME280;64964;48.694;21.206;2023-06-22T09:34:24;98319.56;;;32.10;43.98
76195;BME280;64964;48.694;21.206;2023-06-22T09:36:49;98320.47;;;32.06;44.19
76195;BME280;64964;48.694;21.206;2023-06-22T09:39:15;98316.66;;;32.07;45.40
76195;BME280;64964;48.694;21.206;2023-06-22T09:41:40;98317.13;;;32.09;44.41
76195;BME280;64964;48.694;21.206;2023-06-22T09:44:05;98320.09;;;32.12;44.53
76195;BME280;64964;48.694;21.206;2023-06-22T09:46:31;98326.06;;;32.14;44.39
76195;BME280;64964;48.694;21.206;2023-06-22T09:48:56;98311.28;;;32.15;44.27
76195;BME280;64964;48.694;21.206;2023-06-22T09:51:22;98323.75;;;32.21;45.01
76195;BME280;64964;48.694;21.206;2023-06-22T09:53:52;98327.69;;;32.29;44.58
76195;BME280;64964;48.694;21.206;2023-06-22T09:56:19;98325.66;;;32.35;44.56
76195;BME280;64964;48.694;21.206;2023-06-22T09:58:45;98325.66;;;32.35;44.33
76195;BME280;64964;48.694;21.206;2023-06-22T10:01:15;98322.13;;;32.34;44.10
76195;BME280;64964;48.694;21.206;2023-06-22T10:03:41;98329.97;;;32.41;44.43
76195;BME280;64964;48.694;21.206;2023-06-22T10:06:07;98325.31;;;32.41;43.45
76195;BME280;64964;48.694;21.206;2023-06-22T10:08:33;98326.78;;;32.34;43.40
76195;BME280;64964;48.694;21.206;2023-06-22T10:10:58;98322.63;;;32.36;43.05
76195;BME280;64964;48.694;21.206;2023-06-22T10:13:23;98321.16;;;32.44;44.33
76195;BME280;64964;48.694;21.206;2023-06-22T10:15:49;98327.53;;;32.53;43.86
76195;BME280;64964;48.694;21.206;2023-06-22T10:18:16;98322.44;;;32.60;43.15
76195;BME280;64964;48.694;21.206;2023-06-22T10:20:43;98322.03;;;32.67;42.55
76195;BME280;64964;48.694;21.206;2023-06-22T10:23:08;98322.63;;;32.64;42.92
76195;BME280;64964;48.694;21.206;2023-06-22T10:25:33;98321.53;;;32.65;43.15
76195;BME280;64964;48.694;21.206;2023-06-22T10:27:59;98322.34;;;32.65;42.96
76195;BME280;64964;48.694;21.206;2023-06-22T10:30:24;98311.09;;;32.67;42.53
76195;BME280;64964;48.694;21.206;2023-06-22T10:32:49;98301.25;;;32.66;43.06
76195;BME280;64964;48.694;21.206;2023-06-22T10:35:15;98303.06;;;32.70;42.30
76195;BME280;64964;48.694;21.206;2023-06-22T10:37:45;98302.47;;;32.73;42.66
76195;BME280;64964;48.694;21.206;2023-06-22T10:40:15;98301.53;;;32.78;42.90
76195;BME280;64964;48.694;21.206;2023-06-22T10:42:41;98300.72;;;32.78;42.87
76195;BME280;64964;48.694;21.206;2023-06-22T10:45:07;98290.59;;;32.64;42.69
76195;BME280;64964;48.694;21.206;2023-06-22T10:47:33;98301.38;;;32.61;43.31
76195;BME280;64964;48.694;21.206;2023-06-22T10:49:58;98299.25;;;32.44;41.91
76195;BME280;64964;48.694;21.206;2023-06-22T10:52:24;98301.31;;;32.06;42.29
76195;BME280;64964;48.694;21.206;2023-06-22T10:54:49;98297.88;;;31.86;44.04
76195;BME280;64964;48.694;21.206;2023-06-22T10:57:14;98299.19;;;31.89;43.43
76195;BME280;64964;48.694;21.206;2023-06-22T10:59:40;98288.56;;;31.87;43.15
76195;BME280;64964;48.694;21.206;2023-06-22T11:02:05;98289.00;;;31.75;43.40
76195;BME280;64964;48.694;21.206;2023-06-22T11:04:31;98287.94;;;31.58;42.94
76195;BME280;64964;48.694;21.206;2023-06-22T11:06:56;98287.94;;;31.58;43.21
76195;BME280;64964;48.694;21.206;2023-06-22T11:09:22;98284.91;;;31.59;43.27
76195;BME280;64964;48.694;21.206;2023-06-22T11:11:49;98285.72;;;31.60;43.84
76195;BME280;64964;48.694;21.206;2023-06-22T11:14:14;98286.69;;;31.69;44.75
76195;BME280;64964;48.694;21.206;2023-06-22T11:16:40;98289.16;;;31.84;44.23
76195;BME280;64964;48.694;21.206;2023-06-22T11:19:05;98284.53;;;31.98;43.17
76195;BME280;64964;48.694;21.206;2023-06-22T11:21:31;98287.25;;;31.98;43.17
76195;BME280;64964;48.694;21.206;2023-06-22T11:23:58;98285.72;;;31.92;43.14
76195;BME280;64964;48.694;21.206;2023-06-22T11:26:24;98278.50;;;31.83;42.42
76195;BME280;64964;48.694;21.206;2023-06-22T11:28:50;98284.34;;;31.76;42.76
76195;BME280;64964;48.694;21.206;2023-06-22T11:31:15;98286.16;;;31.81;43.10
76195;BME280;64964;48.694;21.206;2023-06-22T11:33:40;98285.59;;;31.84;42.74
76195;BME280;64964;48.694;21.206;2023-06-22T11:36:06;98278.22;;;31.84;42.20
76195;BME280;64964;48.694;21.206;2023-06-22T11:38:31;98281.81;;;31.80;41.86
76195;BME280;64964;48.694;21.206;2023-06-22T11:40:58;98275.91;;;31.72;42.30
76195;BME280;64964;48.694;21.206;2023-06-22T11:43:24;98274.63;;;31.70;42.74
76195;BME280;64964;48.694;21.206;2023-06-22T11:45:49;98277.16;;;31.80;43.84
76195;BME280;64964;48.694;21.206;2023-06-22T11:48:15;98272.78;;;31.98;42.95
76195;BME280;64964;48.694;21.206;2023-06-22T11:50:41;98263.66;;;32.03;42.74
76195;BME280;64964;48.694;21.206;2023-06-22T11:53:06;98257.88;;;32.04;43.65
76195;BME280;64964;48.694;21.206;2023-06-22T11:55:31;98256.97;;;32.09;43.68
76195;BME280;64964;48.694;21.206;2023-06-22T11:57:57;98265.34;;;32.26;43.41
76195;BME280;64964;48.694;21.206;2023-06-22T12:00:26;98262.94;;;32.38;42.97
76195;BME280;64964;48.694;21.206;2023-06-22T12:02:51;98265.66;;;32.52;42.64
76195;BME280;64964;48.694;21.206;2023-06-22T12:05:20;98260.09;;;32.57;42.04
76195;BME280;64964;48.694;21.206;2023-06-22T12:07:50;98258.84;;;32.63;42.09
76195;BME280;64964;48.694;21.206;2023-06-22T12:10:18;98261.78;;;32.67;42.30
76195;BME280;64964;48.694;21.206;2023-06-22T12:12:43;98243.75;;;32.66;42.44
76195;BME280;64964;48.694;21.206;2023-06-22T12:15:09;98244.25;;;32.68;41.51
76195;BME280;64964;48.694;21.206;2023-06-22T12:17:35;98253.31;;;32.55;40.72
76195;BME280;64964;48.694;21.206;2023-06-22T12:20:01;98248.34;;;32.43;41.27
76195;BME280;64964;48.694;21.206;2023-06-22T12:22:27;98223.41;;;32.31;41.39
76195;BME280;64964;48.694;21.206;2023-06-22T12:24:52;98236.38;;;32.25;41.30
76195;BME280;64964;48.694;21.206;2023-06-22T12:27:18;98243.09;;;32.19;41.79
76195;BME280;64964;48.694;21.206;2023-06-22T12:29:45;98222.41;;;31.99;41.79
76195;BME280;64964;48.694;21.206;2023-06-22T12:32:10;98243.81;;;32.11;42.77
76195;BME280;64964;48.694;21.206;2023-06-22T12:34:38;98232.25;;;32.00;42.34
76195;BME280;64964;48.694;21.206;2023-06-22T12:37:04;98234.38;;;32.03;42.05
76195;BME280;64964;48.694;21.206;2023-06-22T12:39:31;98241.25;;;32.01;42.28
76195;BME280;64964;48.694;21.206;2023-06-22T12:41:56;98240.34;;;31.91;41.84
76195;BME280;64964;48.694;21.206;2023-06-22T12:44:22;98231.78;;;31.79;42.00
76195;BME280;64964;48.694;21.206;2023-06-22T12:46:47;98244.94;;;31.63;42.29
76195;BME280;64964;48.694;21.206;2023-06-22T12:49:12;98235.38;;;31.47;42.42
76195;BME280;64964;48.694;21.206;2023-06-22T12:51:42;98231.28;;;31.31;42.62